KDNN/DNN METAR and TAF weather

Enter ICAO airport designator
Station Type Date Time Source
KDNN METAR 2019/06/24 23:35 UTC NOAA

KDNN 242335Z AUTO 11004KT 10SM BKN120 24/22 A2992 RMK AO2 LTG DSNT S


Station Type Date Time Source
KDNN Decoded METAR 2019/06/24 23:35 UTC NOAA

Dalton, Dalton Municipal Airport, GA, United States (KDNN) 34-43-18N 084-52-09W
Jun 24, 2019 - 07:35 PM EDT / 2019.06.24 2335 UTC
Wind: from the ESE (110 degrees) at 5 MPH (4 KT):0
Visibility: 10 mile(s):0
Sky conditions: mostly cloudy
Weather: Lightning observed
Temperature: 75 F (24 C)
Dew Point: 71 F (22 C)
Relative Humidity: 88%
Pressure (altimeter): 29.92 in. Hg (1013 hPa)
ob: KDNN 242335Z AUTO 11004KT 10SM BKN120 24/22 A2992 RMK AO2 LTG DSNT S
cycle: 23

Station Type Date Time Source
KDNN TAF UTC NOAA

Error!

Example: see airport list